KTHV  York Airport

Add Bookmark

York, Pennsylvania, United States

Status Useage
Operational Public
Latitude Longitude
39° 55' 1" N 76° 52' 22" W
39.917000 -76.873028
Local (DST -4) UTC (GMT -5)
Sep 17, 2014 03:33 Sep 17, 2014 19:33
Sunrise-Sunset Local UTC
Begin Civil Twilight 06:22 10:22
Sunrise 06:49 10:49
Sunset 07:13 23:13
End Civil Twilight 07:40 23:40

Current Weather

METAR Observed VFR
KTHV 171853Z AUTO 00000KT 10SM CLR 21/07 A2998 Wed, Sep 17, 2014 @ 18:53 UTC
(40 Minutes ago)
Visual Flight Rules
Wind Visibility Clouds Conditions
Calm 10 statute miles
  • Clear skies
  • No significant weather
Temperatures Readings Precipitation
Current Temp 21°C (70°F)
Dewpoint 7°C (45°F)
Humidity 40%
Altimeter 29.98"Hg
Sea Level Pressure 1015.3mb
None Recorded

Additional weather within a 50nm radius of KTHV

Map ICAO Location
KMDT 17.3nm N (017°)
KCXY 18nm N (360°)
KDMW 19.5nm S (198°)
KRYT 28.1nm W (247°)
KLNS 29.3nm E (065°)
KMUI 34.1nm N (024°)
KFDK 37.9nm S (218°)
KDMH 40nm S (163°)
KHGR 41.3nm W (253°)

24 Hour Weather History

Loading
-

24 Hour Weather Graphs

Loading
-

CheckWX.com is intended as a tool to help pilots better visualize weather data. It is not intended as a substitute for an official weather briefing obtained from a Flight Service Station. CheckWX.com does not meet the FAA requirements for an official pre-flight weather briefing. Therefore, it's important that pilots still call and obtain an official FSS pre-flight weather briefing.